Time;durP1;ratioP1;P1;durP2;ratioP2;P2;SDS_P1;SDS_P2;PMS_P1;PMS_P2;Temp;Humidity;BMP_temperature;BMP_pressure;BME280_temperature;BME280_humidity;BME280_pressure;Samples;Min_cycle;Max_cycle;Signal;HPM_P1;HPM_P2
2022/01/27 00:04:41;;;;;;;51.58;23.90;;;5.90;99.90;;;;;;5085953;28;20544;-88
2022/01/27 00:07:07;;;;;;;45.35;22.75;;;6.00;99.90;;;;;;5073170;28;20032;-88
2022/01/27 00:09:49;;;;;;;47.72;23.52;;;5.90;99.90;;;;;;5091226;28;20047;-87
2022/01/27 00:12:18;;;;;;;45.47;22.65;;;5.90;99.90;;;;;;5073140;28;20464;-87
2022/01/27 00:14:47;;;;;;;47.85;22.60;;;6.00;99.90;;;;;;5074678;28;20036;-88
2022/01/27 00:17:15;;;;;;;45.00;22.02;;;5.90;99.90;;;;;;5072133;27;20388;-87
2022/01/27 00:19:42;;;;;;;50.00;23.60;;;6.00;99.90;;;;;;5073457;27;20032;-88
2022/01/27 00:22:08;;;;;;;45.83;21.55;;;5.90;99.90;;;;;;5073356;27;20040;-88
2022/01/27 00:24:33;;;;;;;47.60;23.08;;;5.90;99.90;;;;;;5073870;28;20043;-88
2022/01/27 00:26:59;;;;;;;46.70;21.90;;;6.00;99.90;;;;;;5091607;28;20405;-87
2022/01/27 00:29:25;;;;;;;46.85;21.95;;;6.00;99.90;;;;;;5090570;28;20064;-89
2022/01/27 00:31:51;;;;;;;49.72;22.75;;;6.00;99.90;;;;;;5091174;27;20047;-87
2022/01/27 00:34:17;;;;;;;48.75;22.40;;;6.00;99.90;;;;;;5102449;27;20523;-89
2022/01/27 00:36:42;;;;;;;46.33;22.55;;;6.00;99.90;;;;;;5087165;27;20146;-87
2022/01/27 00:39:08;;;;;;;43.50;21.35;;;6.00;99.90;;;;;;5083022;28;20040;-88
2022/01/27 00:41:34;;;;;;;44.47;22.15;;;6.00;99.90;;;;;;5071124;27;20407;-87
2022/01/27 00:44:02;;;;;;;46.13;22.50;;;6.00;99.90;;;;;;5071721;28;20418;-87
2022/01/27 00:46:31;;;;;;;44.65;21.63;;;6.00;99.90;;;;;;5074164;28;20439;-87
2022/01/27 00:48:57;;;;;;;43.13;22.13;;;6.00;99.90;;;;;;5072925;27;20877;-86
2022/01/27 00:51:25;;;;;;;50.38;22.00;;;6.00;99.90;;;;;;5090668;28;20193;-87
2022/01/27 00:54:13;;;;;;;40.45;20.65;;;6.00;99.90;;;;;;5091233;28;20040;-87
2022/01/27 00:56:49;;;;;;;43.47;21.35;;;6.00;99.90;;;;;;5068775;28;20058;-87
2022/01/27 01:02:15;;;;;;;45.08;22.73;;;6.00;99.90;;;;;;5090911;28;20046;-87
2022/01/27 01:04:44;;;;;;;46.60;21.98;;;6.00;99.90;;;;;;5072360;28;20386;-87
2022/01/27 01:07:11;;;;;;;48.40;22.80;;;6.00;99.90;;;;;;5071864;27;20061;-87
2022/01/27 01:33:10;;;;;;;42.40;20.42;;;5.90;99.90;;;;;;5088446;28;20131;-86
2022/01/27 01:35:49;;;;;;;43.40;19.80;;;6.00;99.90;;;;;;5089624;27;20579;-88
2022/01/27 01:38:21;;;;;;;40.13;20.15;;;6.00;99.90;;;;;;5087774;28;20047;-88
2022/01/27 01:40:49;;;;;;;43.42;19.83;;;6.00;99.90;;;;;;5072584;28;20111;-87
2022/01/27 01:43:16;;;;;;;40.42;20.83;;;6.00;99.90;;;;;;5072601;28;20039;-88
2022/01/27 01:45:42;;;;;;;42.45;18.60;;;6.00;99.90;;;;;;5090009;28;20118;-87
2022/01/27 01:48:08;;;;;;;38.40;19.05;;;5.90;99.90;;;;;;5088902;28;20061;-89
2022/01/27 01:50:34;;;;;;;47.60;20.35;;;5.90;99.90;;;;;;5089219;28;20039;-87
2022/01/27 01:53:00;;;;;;;43.10;20.60;;;5.90;99.90;;;;;;5072541;28;20040;-88
2022/01/27 01:55:26;;;;;;;42.13;19.27;;;5.90;99.90;;;;;;5089286;27;20448;-88
2022/01/27 01:57:51;;;;;;;40.08;18.83;;;6.00;99.90;;;;;;5089447;28;20032;-88
2022/01/27 02:00:17;;;;;;;39.05;20.25;;;5.90;99.90;;;;;;5071990;28;20047;-89
2022/01/27 02:02:43;;;;;;;40.08;18.70;;;5.90;99.90;;;;;;5071336;28;20028;-88
2022/01/27 02:05:09;;;;;;;44.55;20.27;;;6.00;99.90;;;;;;5072579;28;20038;-88
2022/01/27 02:08:12;;;;;;;40.88;20.27;;;6.00;99.90;;;;;;5070969;28;20039;-87
2022/01/27 02:17:58;;;;;;;43.40;19.33;;;6.00;99.90;;;;;;5087385;27;20096;-88
2022/01/27 02:19:09;;;;;;;39.35;20.73;;;6.00;99.90;;;;;;5085942;28;20059;-89
2022/01/27 02:21:46;;;;;;;42.25;20.48;;;6.00;99.90;;;;;;5101556;28;20121;-88
2022/01/27 02:24:11;;;;;;;42.67;20.75;;;6.00;99.90;;;;;;5088808;28;20027;-88
2022/01/27 02:26:37;;;;;;;36.97;19.38;;;6.00;99.90;;;;;;5088190;27;20055;-88
2022/01/27 02:29:02;;;;;;;38.33;20.23;;;6.00;99.90;;;;;;5088642;28;20036;-88
2022/01/27 02:31:28;;;;;;;40.80;19.73;;;5.90;99.90;;;;;;5120224;27;20073;-89
2022/01/27 02:33:58;;;;;;;39.92;20.25;;;5.90;99.90;;;;;;5070780;28;20345;-88
2022/01/27 02:36:23;;;;;;;43.40;21.92;;;5.90;99.90;;;;;;5089178;28;20528;-88
2022/01/27 02:38:49;;;;;;;41.65;20.35;;;5.90;99.90;;;;;;5073892;27;20176;-89
2022/01/27 02:41:16;;;;;;;41.15;20.60;;;5.90;99.90;;;;;;5088829;27;20088;-87
2022/01/27 02:43:42;;;;;;;40.30;19.58;;;6.00;99.90;;;;;;5074676;28;20074;-87
2022/01/27 02:46:20;;;;;;;43.15;20.75;;;5.90;99.90;;;;;;5072249;28;20188;-88
2022/01/27 02:48:45;;;;;;;41.28;20.77;;;5.90;99.90;;;;;;5088700;28;20035;-88
2022/01/27 02:51:11;;;;;;;41.80;21.08;;;5.90;99.90;;;;;;5072449;28;20043;-87
2022/01/27 02:53:39;;;;;;;46.75;21.27;;;5.90;99.90;;;;;;5072233;28;20032;-88
2022/01/27 02:56:08;;;;;;;45.92;21.52;;;5.90;99.90;;;;;;5073658;28;20043;-87
2022/01/27 02:58:34;;;;;;;39.20;21.38;;;6.00;99.90;;;;;;5087525;28;20040;-87
2022/01/27 03:00:59;;;;;;;42.35;21.02;;;5.90;99.90;;;;;;5072180;28;20390;-87
2022/01/27 03:03:25;;;;;;;41.40;21.45;;;5.90;99.90;;;;;;5087346;28;20039;-87
2022/01/27 03:05:50;;;;;;;42.88;21.00;;;6.00;99.90;;;;;;5120598;28;20140;-87
2022/01/27 03:08:16;;;;;;;45.78;21.70;;;5.90;99.90;;;;;;5088408;28;20127;-88
2022/01/27 03:10:52;;;;;;;46.00;21.42;;;5.90;99.90;;;;;;5069695;28;20510;-88
2022/01/27 03:13:17;;;;;;;;;;;5.90;99.90;;;;;;5071448;28;20135;-88
2022/01/27 03:15:43;;;;;;;50.45;21.85;;;5.90;99.90;;;;;;5085999;28;20425;-89
2022/01/27 03:18:09;;;;;;;44.75;20.88;;;5.90;99.90;;;;;;5068141;28;20036;-88
2022/01/27 03:20:34;;;;;;;42.10;21.48;;;5.90;99.90;;;;;;5086213;28;20071;-88
2022/01/27 03:23:02;;;;;;;50.45;21.92;;;5.90;99.90;;;;;;5067017;28;20039;-89
2022/01/27 03:25:28;;;;;;;42.00;20.92;;;5.90;99.90;;;;;;5086350;28;20031;-88
2022/01/27 03:27:54;;;;;;;48.13;22.17;;;5.90;99.90;;;;;;5084117;28;20036;-88
2022/01/27 03:30:20;;;;;;;48.97;22.58;;;5.90;99.90;;;;;;5077391;28;20035;-88
2022/01/27 03:32:46;;;;;;;47.45;23.33;;;5.90;99.90;;;;;;5078389;28;20039;-88
2022/01/27 03:35:11;;;;;;;48.33;22.40;;;5.90;99.90;;;;;;5088357;28;20372;-88
2022/01/27 03:37:37;;;;;;;49.97;24.10;;;5.90;99.90;;;;;;5087953;28;20035;-88
2022/01/27 03:40:04;;;;;;;50.33;24.65;;;5.90;99.90;;;;;;5089604;28;20119;-88
2022/01/27 03:42:30;;;;;;;47.08;23.17;;;5.90;99.90;;;;;;5073053;27;20034;-88
2022/01/27 03:44:56;;;;;;;46.75;22.30;;;5.90;99.90;;;;;;5092104;28;20102;-88
2022/01/27 03:47:21;;;;;;;49.30;23.30;;;5.90;99.90;;;;;;5074723;28;20055;-87
2022/01/27 03:49:47;;;;;;;45.90;23.05;;;5.90;99.90;;;;;;5092742;27;20032;-88
2022/01/27 03:52:13;;;;;;;47.90;22.85;;;5.90;99.90;;;;;;5074297;28;20498;-89
2022/01/27 03:54:38;;;;;;;47.08;23.05;;;5.90;99.90;;;;;;5075196;27;20435;-88
2022/01/27 03:57:04;;;;;;;43.85;22.38;;;5.90;99.90;;;;;;5093149;28;20516;-88
2022/01/27 03:59:30;;;;;;;46.30;21.73;;;5.90;99.90;;;;;;5090416;28;20111;-88
2022/01/27 04:01:57;;;;;;;53.50;24.05;;;5.90;99.90;;;;;;5075397;28;20027;-89
2022/01/27 04:04:23;;;;;;;45.55;21.40;;;5.90;99.90;;;;;;5072837;27;20039;-88
2022/01/27 04:06:52;;;;;;;47.72;22.02;;;5.90;99.90;;;;;;5075500;28;20031;-88
2022/01/27 04:09:18;;;;;;;50.53;23.73;;;5.90;99.90;;;;;;5086920;28;20060;-88
2022/01/27 04:11:44;;;;;;;47.90;22.95;;;5.90;99.90;;;;;;5086698;28;20123;-89
2022/01/27 04:14:12;;;;;;;47.63;21.95;;;5.90;99.90;;;;;;5061746;28;20583;-88
2022/01/27 04:16:38;;;;;;;48.83;22.95;;;6.00;99.90;;;;;;5071206;28;20190;-89
2022/01/27 04:19:04;;;;;;;55.85;22.73;;;6.00;99.90;;;;;;5085634;28;20123;-88
2022/01/27 04:21:30;;;;;;;49.42;22.70;;;6.00;99.90;;;;;;5070831;28;20032;-88
2022/01/27 04:23:56;;;;;;;44.45;22.25;;;6.00;99.90;;;;;;5087431;28;20036;-88
2022/01/27 04:26:29;;;;;;;44.13;21.77;;;6.00;99.90;;;;;;5070206;28;20043;-88
2022/01/27 04:28:55;;;;;;;47.65;23.13;;;6.00;99.90;;;;;;5087229;28;20083;-87
2022/01/27 04:31:22;;;;;;;45.53;22.33;;;6.00;99.90;;;;;;5088106;28;20501;-88
2022/01/27 04:33:48;;;;;;;40.72;21.45;;;6.00;99.90;;;;;;5083785;28;20035;-88
2022/01/27 04:36:24;;;;;;;48.45;22.08;;;6.00;99.90;;;;;;5087254;28;20044;-88
2022/01/27 04:39:01;;;;;;;48.55;21.27;;;6.00;99.90;;;;;;5084511;28;20385;-89
2022/01/27 04:44:23;;;;;;;45.83;20.85;;;6.00;99.90;;;;;;5085745;28;20131;-88
2022/01/27 04:46:57;;;;;;;46.22;22.92;;;6.00;99.90;;;;;;5085497;28;20096;-88
2022/01/27 04:49:23;;;;;;;47.60;22.23;;;6.00;99.90;;;;;;5062939;28;20067;-87
2022/01/27 04:51:49;;;;;;;47.00;21.17;;;6.00;99.90;;;;;;5062956;28;20071;-88
2022/01/27 04:54:21;;;;;;;41.63;21.23;;;6.00;99.90;;;;;;5070623;28;20043;-88
2022/01/27 04:56:47;;;;;;;45.55;21.92;;;6.10;99.90;;;;;;5062015;28;20047;-88
2022/01/27 04:59:20;;;;;;;47.05;22.13;;;6.10;99.90;;;;;;5085919;28;20534;-89
2022/01/27 05:01:54;;;;;;;49.13;21.25;;;6.10;99.90;;;;;;5066094;28;20115;-88
2022/01/27 05:04:22;;;;;;;46.20;22.60;;;6.10;99.90;;;;;;5058878;28;20048;-88
2022/01/27 05:06:49;;;;;;;49.78;22.98;;;6.10;99.90;;;;;;5087306;28;20032;-88
2022/01/27 05:09:15;;;;;;;43.15;20.60;;;6.10;99.90;;;;;;5067416;28;20055;-89
2022/01/27 05:11:49;;;;;;;48.38;22.10;;;6.10;99.90;;;;;;5086706;28;20039;-88
2022/01/27 05:14:22;;;;;;;49.88;21.60;;;6.10;99.90;;;;;;5084147;28;20123;-88
2022/01/27 05:16:48;;;;;;;43.88;21.13;;;6.10;99.90;;;;;;5069839;28;20641;-88
2022/01/27 05:19:14;;;;;;;46.50;21.15;;;6.10;99.90;;;;;;5068591;28;20123;-88
2022/01/27 05:21:39;;;;;;;46.88;21.05;;;6.10;99.90;;;;;;5069169;28;20131;-88
2022/01/27 05:24:05;;;;;;;40.00;20.13;;;6.10;99.90;;;;;;5087090;28;20790;-87
2022/01/27 05:26:35;;;;;;;47.80;21.77;;;6.10;99.90;;;;;;5058906;28;20093;-87
2022/01/27 05:29:06;;;;;;;44.50;20.67;;;6.10;99.90;;;;;;5069177;28;20670;-89
2022/01/27 05:31:32;;;;;;;47.55;20.67;;;6.20;99.90;;;;;;5070011;28;20117;-88
2022/01/27 05:34:01;;;;;;;41.83;21.55;;;6.20;99.90;;;;;;5085142;28;20118;-88
2022/01/27 05:36:26;;;;;;;47.60;20.85;;;6.20;99.90;;;;;;5066088;28;20032;-88
2022/01/27 05:38:52;;;;;;;47.85;21.80;;;6.20;99.90;;;;;;5086375;28;20059;-88
2022/01/27 05:41:18;;;;;;;41.55;20.65;;;6.20;99.90;;;;;;5085838;28;20131;-88
2022/01/27 05:43:44;;;;;;;45.63;20.08;;;6.20;99.90;;;;;;5060035;28;20032;-88
2022/01/27 05:46:10;;;;;;;50.83;22.10;;;6.20;99.90;;;;;;5085876;28;20728;-88
2022/01/27 05:48:36;;;;;;;54.25;22.58;;;6.20;99.90;;;;;;5057942;28;20043;-88
2022/01/27 05:51:02;;;;;;;52.70;22.90;;;6.20;99.90;;;;;;5084335;28;20039;-87
2022/01/27 05:53:32;;;;;;;51.90;21.58;;;6.20;99.90;;;;;;5069100;28;20032;-88
2022/01/27 05:55:58;;;;;;;54.45;22.65;;;6.10;99.90;;;;;;5084424;28;20162;-87
2022/01/27 05:58:25;;;;;;;52.50;22.42;;;6.10;99.90;;;;;;5068522;28;20134;-88
2022/01/27 06:00:51;;;;;;;52.50;22.30;;;6.10;99.90;;;;;;5085767;28;20046;-87
2022/01/27 06:03:16;;;;;;;50.13;21.83;;;6.10;99.90;;;;;;5066490;28;20127;-87
2022/01/27 06:05:42;;;;;;;57.03;22.83;;;6.10;99.90;;;;;;5052198;28;20043;-87
2022/01/27 06:08:08;;;;;;;55.88;24.02;;;6.10;99.90;;;;;;5085056;28;20074;-87
2022/01/27 06:10:34;;;;;;;64.07;23.48;;;6.00;99.90;;;;;;5062271;28;20035;-87
2022/01/27 06:13:00;;;;;;;61.22;22.00;;;6.00;99.90;;;;;;5068978;28;20070;-88
2022/01/27 06:15:27;;;;;;;53.67;22.73;;;6.00;99.90;;;;;;5089380;28;20082;-86
2022/01/27 06:17:53;;;;;;;57.50;21.23;;;6.00;99.90;;;;;;5084911;28;20044;-87
2022/01/27 06:20:20;;;;;;;61.80;23.45;;;6.00;99.90;;;;;;5072396;28;20593;-88
2022/01/27 06:22:46;;;;;;;57.40;22.45;;;6.00;99.90;;;;;;5086641;28;20035;-87
2022/01/27 06:25:14;;;;;;;63.65;24.13;;;6.00;99.90;;;;;;5072702;28;20038;-87
2022/01/27 06:27:40;;;;;;;63.38;24.48;;;6.00;99.90;;;;;;5091204;28;20038;-86
2022/01/27 06:30:08;;;;;;;56.03;22.55;;;6.10;99.90;;;;;;5072668;28;20028;-86
2022/01/27 06:32:34;;;;;;;56.25;21.35;;;6.00;99.90;;;;;;5070050;28;20042;-86
2022/01/27 06:35:03;;;;;;;63.58;22.65;;;6.20;99.90;;;;;;5071829;28;20032;-86
2022/01/27 06:37:30;;;;;;;59.08;22.52;;;6.10;99.90;;;;;;5089063;28;20395;-86
2022/01/27 06:39:55;;;;;;;52.55;22.38;;;6.10;99.90;;;;;;5072148;28;20046;-86
2022/01/27 06:42:21;;;;;;;62.35;22.48;;;6.10;99.90;;;;;;5088419;28;20453;-86
2022/01/27 06:44:47;;;;;;;58.08;22.20;;;6.10;99.90;;;;;;5086917;28;20122;-86
2022/01/27 06:47:12;;;;;;;59.90;22.25;;;6.10;99.90;;;;;;5088244;28;20040;-86
2022/01/27 06:49:38;;;;;;;51.17;22.05;;;6.10;99.90;;;;;;5071225;27;20076;-86
2022/01/27 06:52:04;;;;;;;53.45;20.80;;;6.10;99.90;;;;;;5089796;28;20088;-86
2022/01/27 06:54:30;;;;;;;56.22;20.75;;;6.10;99.90;;;;;;5072620;28;20035;-86
2022/01/27 06:56:55;;;;;;;53.00;21.73;;;6.10;99.90;;;;;;5088802;28;20436;-87
2022/01/27 06:59:21;;;;;;;48.33;19.92;;;6.10;99.90;;;;;;5088912;28;20100;-87
2022/01/27 07:01:46;;;;;;;48.75;20.00;;;6.20;99.90;;;;;;5070796;28;20031;-87
2022/01/27 07:04:12;;;;;;;55.03;20.35;;;6.20;99.90;;;;;;5071088;28;20568;-87
2022/01/27 07:06:39;;;;;;;48.20;20.17;;;6.20;99.90;;;;;;5087110;28;20061;-87
2022/01/27 07:09:05;;;;;;;44.17;18.98;;;6.20;99.90;;;;;;5071379;28;20399;-86
2022/01/27 07:11:31;;;;;;;44.63;18.63;;;6.20;99.90;;;;;;5071972;28;20035;-86
2022/01/27 07:13:57;;;;;;;41.85;18.05;;;6.30;99.90;;;;;;5069762;28;20368;-86
2022/01/27 07:16:22;;;;;;;44.95;18.63;;;6.20;99.90;;;;;;5075359;28;20806;-85
2022/01/27 07:18:48;;;;;;;42.35;17.75;;;6.30;99.90;;;;;;5091298;28;20027;-86
2022/01/27 07:21:13;;;;;;;44.53;18.70;;;6.30;99.90;;;;;;5075323;28;20032;-86
2022/01/27 07:23:39;;;;;;;42.65;18.67;;;6.30;99.90;;;;;;5092521;27;20100;-86
2022/01/27 07:26:05;;;;;;;37.03;17.00;;;6.40;99.90;;;;;;5093543;28;20078;-85
2022/01/27 07:28:31;;;;;;;33.45;15.27;;;6.40;99.90;;;;;;5093004;28;20067;-86
2022/01/27 07:30:56;;;;;;;36.80;14.85;;;6.40;99.90;;;;;;5092210;28;20039;-86
2022/01/27 07:33:22;;;;;;;40.00;17.25;;;6.40;99.90;;;;;;5074410;28;20089;-86
2022/01/27 07:35:47;;;;;;;33.70;14.05;;;6.50;99.90;;;;;;5090240;28;20044;-86
2022/01/27 07:38:13;;;;;;;34.25;13.73;;;6.50;99.90;;;;;;5092882;28;20031;-86
2022/01/27 07:40:38;;;;;;;34.40;15.43;;;6.50;99.90;;;;;;5092209;28;20079;-86
2022/01/27 07:43:04;;;;;;;32.58;14.10;;;6.50;99.90;;;;;;5074890;27;20027;-86
2022/01/27 07:45:30;;;;;;;29.55;13.90;;;6.50;99.90;;;;;;5073644;28;20448;-86
2022/01/27 07:47:57;;;;;;;31.02;14.05;;;6.50;99.90;;;;;;5088982;28;20035;-84
2022/01/27 07:50:28;;;;;;;31.52;14.30;;;6.60;99.90;;;;;;5075759;27;20040;-83
2022/01/27 07:52:54;;;;;;;35.15;14.50;;;6.60;99.90;;;;;;5091132;28;20038;-82
2022/01/27 07:55:19;;;;;;;32.03;15.07;;;6.60;99.90;;;;;;5090337;28;20039;-85
2022/01/27 07:57:45;;;;;;;33.28;16.35;;;6.60;99.90;;;;;;5089338;28;20035;-86
2022/01/27 08:00:11;;;;;;;40.42;16.80;;;6.60;99.90;;;;;;5088605;28;20039;-86
2022/01/27 08:02:37;;;;;;;40.13;15.80;;;6.60;99.90;;;;;;5068929;27;20030;-85
2022/01/27 08:05:02;;;;;;;36.00;14.80;;;6.70;99.90;;;;;;5090018;27;20039;-85
2022/01/27 08:07:28;;;;;;;41.35;16.50;;;6.70;99.90;;;;;;5090098;27;20051;-86
2022/01/27 08:09:54;;;;;;;37.58;15.25;;;6.70;99.90;;;;;;5089926;28;20135;-85
2022/01/27 08:12:19;;;;;;;38.85;16.30;;;6.70;99.90;;;;;;5087485;27;20047;-85
2022/01/27 08:14:45;;;;;;;41.50;15.60;;;6.70;99.90;;;;;;5087438;28;20036;-85
2022/01/27 08:17:10;;;;;;;41.10;16.23;;;6.80;99.90;;;;;;5074859;27;20039;-86
2022/01/27 08:19:36;;;;;;;44.30;16.27;;;6.80;99.90;;;;;;5088007;27;20491;-86
2022/01/27 08:22:02;;;;;;;40.63;15.98;;;6.80;99.90;;;;;;5073267;27;20428;-86
2022/01/27 08:24:27;;;;;;;46.75;17.17;;;6.90;99.90;;;;;;5072499;28;20035;-87
2022/01/27 08:26:59;;;;;;;46.60;16.52;;;6.90;99.90;;;;;;5073165;28;20031;-87
2022/01/27 08:29:32;;;;;;;48.67;17.88;;;6.90;99.90;;;;;;5089286;28;20561;-86
2022/01/27 08:32:02;;;;;;;46.00;17.42;;;6.90;99.90;;;;;;5071891;28;20068;-86
2022/01/27 08:34:41;;;;;;;49.83;16.73;;;7.00;99.90;;;;;;5090732;28;20482;-85
2022/01/27 08:37:17;;;;;;;41.25;15.75;;;7.00;99.90;;;;;;5082446;28;20044;-86
2022/01/27 08:39:43;;;;;;;48.50;16.10;;;7.00;99.90;;;;;;5087642;28;20048;-87
2022/01/27 08:42:09;;;;;;;45.38;16.83;;;7.00;99.90;;;;;;5069309;28;20502;-85
2022/01/27 08:44:36;;;;;;;43.03;16.42;;;7.10;99.90;;;;;;5067725;28;20032;-85
2022/01/27 08:47:03;;;;;;;43.33;15.70;;;7.10;99.90;;;;;;5082384;27;20028;-86
2022/01/27 08:49:29;;;;;;;38.47;14.57;;;7.10;99.90;;;;;;5070693;28;20063;-86
2022/01/27 08:51:56;;;;;;;37.03;14.05;;;7.20;99.90;;;;;;5075210;28;20062;-86
2022/01/27 08:54:22;;;;;;;34.90;13.10;;;7.20;99.90;;;;;;5072444;27;20036;-86
2022/01/27 08:56:48;;;;;;;33.33;13.15;;;7.20;99.90;;;;;;5074095;28;20501;-86
2022/01/27 08:59:16;;;;;;;36.70;13.90;;;7.30;99.90;;;;;;5092366;28;20044;-86
2022/01/27 09:01:42;;;;;;;32.85;12.75;;;7.30;99.90;;;;;;5109063;28;20506;-86
2022/01/27 09:04:08;;;;;;;34.40;13.05;;;7.40;99.90;;;;;;5091942;28;20092;-86
2022/01/27 09:06:34;;;;;;;35.83;12.55;;;7.40;99.90;;;;;;5090493;28;20039;-86
2022/01/27 09:09:00;;;;;;;36.13;12.30;;;7.40;99.90;;;;;;5076130;28;20171;-86
2022/01/27 09:11:28;;;;;;;29.40;11.43;;;7.50;99.90;;;;;;5092881;28;20039;-86
2022/01/27 09:13:55;;;;;;;32.40;11.68;;;7.50;99.90;;;;;;5060430;28;20071;-86
2022/01/27 09:16:21;;;;;;;32.50;11.32;;;7.50;99.90;;;;;;5083435;28;20044;-87
2022/01/27 09:18:47;;;;;;;36.53;11.20;;;7.50;99.90;;;;;;5073909;28;20059;-87
2022/01/27 09:21:19;;;;;;;38.22;10.75;;;7.50;99.90;;;;;;5077749;28;20039;-87
2022/01/27 09:23:45;;;;;;;33.55;10.45;;;7.60;99.90;;;;;;5091987;28;20036;-87
2022/01/27 09:26:37;;;;;;;30.45;10.45;;;7.60;99.90;;;;;;5108076;28;20109;-86
2022/01/27 09:28:56;;;;;;;29.25;9.80;;;7.60;99.90;;;;;;5091863;28;20478;-86
2022/01/27 09:31:22;;;;;;;32.83;9.82;;;7.60;99.90;;;;;;5092304;28;20074;-87
2022/01/27 09:33:47;;;;;;;32.10;10.35;;;7.70;99.90;;;;;;5074446;28;20074;-86
2022/01/27 09:36:13;;;;;;;29.17;10.63;;;7.70;99.90;;;;;;5074209;28;20542;-87
2022/01/27 09:38:39;;;;;;;33.70;10.48;;;7.70;99.90;;;;;;5073854;28;20088;-87
2022/01/27 09:41:07;;;;;;;31.05;9.45;;;7.70;99.90;;;;;;5067911;27;20039;-87
2022/01/27 09:43:35;;;;;;;28.73;9.25;;;7.70;99.90;;;;;;5073821;28;20161;-87
2022/01/27 09:46:05;;;;;;;29.95;9.50;;;7.80;99.90;;;;;;5072056;28;20058;-87
2022/01/27 09:48:36;;;;;;;29.48;9.18;;;7.80;99.90;;;;;;5093091;28;20076;-87
2022/01/27 09:53:48;;;;;;;26.95;8.18;;;7.90;99.90;;;;;;5085395;28;20565;-88
2022/01/27 09:56:14;;;;;;;28.92;8.75;;;7.90;99.90;;;;;;5072433;28;20527;-89
2022/01/27 09:58:39;;;;;;;27.35;9.10;;;7.90;99.90;;;;;;5087123;28;20024;-87
2022/01/27 10:01:06;;;;;;;24.17;8.07;;;7.90;99.90;;;;;;5089728;28;20386;-87
2022/01/27 10:03:32;;;;;;;24.45;7.72;;;7.90;99.90;;;;;;5085502;28;20032;-89
2022/01/27 10:06:13;;;;;;;23.42;6.95;;;8.00;99.90;;;;;;5082244;28;20089;-87
2022/01/27 10:08:42;;;;;;;24.58;7.07;;;8.00;99.90;;;;;;5079412;28;20056;-86
2022/01/27 10:11:16;;;;;;;21.92;6.63;;;8.00;99.90;;;;;;5072550;28;20462;-88
2022/01/27 10:13:44;;;;;;;26.15;6.95;;;8.10;99.90;;;;;;5089524;28;20043;-87
2022/01/27 10:16:27;;;;;;;21.85;7.00;;;8.10;99.90;;;;;;5069603;28;20074;-87
2022/01/27 10:19:04;;;;;;;26.52;6.63;;;8.20;99.90;;;;;;5085876;28;20043;-87
2022/01/27 10:21:37;;;;;;;17.85;6.22;;;8.20;99.90;;;;;;5070974;28;20063;-87
2022/01/27 10:24:19;;;;;;;25.55;6.78;;;8.20;99.90;;;;;;5083449;28;20067;-88
2022/01/27 10:27:15;;;;;;;26.33;6.68;;;8.30;99.90;;;;;;5071642;28;20122;-88
2022/01/27 10:29:50;;;;;;;25.30;5.60;;;8.30;99.90;;;;;;5085886;28;20145;-88
2022/01/27 10:32:21;;;;;;;23.63;6.63;;;8.40;99.90;;;;;;5088666;28;20141;-87
2022/01/27 10:34:58;;;;;;;28.73;6.72;;;8.40;99.90;;;;;;5102469;28;20475;-89
2022/01/27 10:37:24;;;;;;;26.52;5.57;;;8.40;99.90;;;;;;5103782;28;20031;-88
2022/01/27 10:39:49;;;;;;;16.63;5.22;;;8.40;99.90;;;;;;5098637;28;20279;-86
2022/01/27 10:42:20;;;;;;;18.40;5.40;;;8.50;99.90;;;;;;5085439;28;20027;-85
2022/01/27 10:44:54;;;;;;;20.50;5.53;;;8.50;99.90;;;;;;5078012;28;20044;-86
2022/01/27 10:47:30;;;;;;;17.30;5.38;;;8.50;99.90;;;;;;5088409;28;20403;-87
2022/01/27 10:50:03;;;;;;;14.93;5.30;;;8.50;99.90;;;;;;5070479;28;20036;-89
2022/01/27 10:52:44;;;;;;;17.38;5.13;;;8.60;99.90;;;;;;5088045;28;20054;-88
2022/01/27 10:55:17;;;;;;;22.55;5.90;;;8.60;99.90;;;;;;5086063;28;20411;-87
2022/01/27 10:57:50;;;;;;;21.92;5.47;;;8.60;99.90;;;;;;5075970;28;20044;-89
2022/01/27 11:00:21;;;;;;;18.60;4.93;;;8.60;99.90;;;;;;5085127;27;20376;-88
2022/01/27 11:02:56;;;;;;;20.23;4.50;;;8.70;99.90;;;;;;5064627;28;20515;-87
2022/01/27 11:05:24;;;;;;;20.83;4.82;;;8.60;99.90;;;;;;5083101;28;20042;-87
2022/01/27 11:07:50;;;;;;;17.25;5.18;;;8.60;99.90;;;;;;5069675;28;20255;-87
2022/01/27 11:10:19;;;;;;;21.90;5.72;;;8.60;99.90;;;;;;5087798;28;20139;-88
2022/01/27 11:12:45;;;;;;;16.60;5.03;;;8.70;99.90;;;;;;5074665;28;20075;-87
2022/01/27 11:15:16;;;;;;;24.17;5.00;;;8.60;99.90;;;;;;5068846;28;20028;-87
2022/01/27 11:17:44;;;;;;;19.60;4.60;;;8.60;99.90;;;;;;5082440;28;20481;-88
2022/01/27 11:20:26;;;;;;;25.63;5.30;;;8.60;99.90;;;;;;5086834;28;20132;-87
2022/01/27 11:27:53;;;;;;;21.73;4.55;;;8.60;99.90;;;;;;5082249;28;20155;-87
2022/01/27 11:30:43;;;;;;;20.60;5.38;;;8.60;99.90;;;;;;5080098;28;20570;-87
2022/01/27 11:33:11;;;;;;;20.75;4.68;;;8.70;99.90;;;;;;5058473;28;20047;-86
2022/01/27 11:35:39;;;;;;;18.65;4.43;;;8.70;99.90;;;;;;5068657;28;20044;-87
2022/01/27 11:38:04;;;;;;;21.02;4.82;;;8.70;99.90;;;;;;5082185;28;20053;-88
2022/01/27 11:40:37;;;;;;;16.45;3.40;;;8.60;99.90;;;;;;5080947;28;20027;-87
2022/01/27 11:43:11;;;;;;;18.15;4.28;;;8.70;99.90;;;;;;5065942;28;20085;-87
2022/01/27 11:45:44;;;;;;;18.58;5.30;;;8.70;99.90;;;;;;5077286;28;20024;-86
2022/01/27 11:48:13;;;;;;;14.43;4.05;;;8.80;99.90;;;;;;5099983;28;20040;-89
2022/01/27 11:50:51;;;;;;;18.20;3.95;;;8.70;99.90;;;;;;5066396;28;20127;-87
2022/01/27 11:53:40;;;;;;;16.17;3.63;;;8.80;99.90;;;;;;5064147;28;20510;-86
2022/01/27 11:56:08;;;;;;;24.60;4.80;;;8.80;99.90;;;;;;5055020;28;20487;-88
2022/01/27 11:58:46;;;;;;;17.02;4.03;;;8.80;99.90;;;;;;5082455;28;20044;-87
2022/01/27 12:01:19;;;;;;;17.30;4.05;;;8.70;99.90;;;;;;5084941;28;20049;-89
2022/01/27 12:04:06;;;;;;;29.05;6.03;;;8.70;99.90;;;;;;5061796;28;20032;-88
2022/01/27 12:07:02;;;;;;;17.65;3.90;;;8.80;99.90;;;;;;5069346;28;20039;-88
2022/01/27 12:09:30;;;;;;;23.50;4.33;;;8.80;99.90;;;;;;5088450;28;20070;-87
2022/01/27 12:12:12;;;;;;;18.85;3.90;;;8.80;99.90;;;;;;5088104;28;20157;-86
2022/01/27 12:14:39;;;;;;;17.02;3.58;;;8.80;99.90;;;;;;5092717;28;20114;-86
2022/01/27 12:17:08;;;;;;;17.55;3.63;;;8.80;99.90;;;;;;5070054;28;20047;-87
2022/01/27 12:19:52;;;;;;;19.30;3.95;;;8.80;99.90;;;;;;5091383;28;20116;-88
2022/01/27 12:22:26;;;;;;;24.02;4.30;;;8.90;99.90;;;;;;5075415;28;20042;-87
2022/01/27 12:24:53;;;;;;;16.73;3.63;;;8.80;99.90;;;;;;5075301;28;20660;-86
2022/01/27 12:27:19;;;;;;;20.13;3.80;;;8.80;99.90;;;;;;5086760;28;20066;-86
2022/01/27 12:29:50;;;;;;;15.50;3.22;;;8.90;99.90;;;;;;5068470;28;20031;-88
2022/01/27 12:32:15;;;;;;;20.30;3.78;;;8.90;99.90;;;;;;5091847;28;20039;-85
2022/01/27 12:34:46;;;;;;;23.88;3.65;;;8.90;99.90;;;;;;5089102;28;20092;-85
2022/01/27 12:37:12;;;;;;;16.90;3.33;;;8.80;99.90;;;;;;5080409;28;20047;-87
2022/01/27 12:39:40;;;;;;;12.98;2.65;;;8.80;99.90;;;;;;5071714;28;20050;-87
2022/01/27 12:42:08;;;;;;;20.33;3.92;;;8.90;99.90;;;;;;5076036;28;20036;-88
2022/01/27 12:44:35;;;;;;;16.60;4.15;;;8.90;99.90;;;;;;5066840;28;20085;-87
2022/01/27 12:47:05;;;;;;;19.55;3.58;;;8.80;99.90;;;;;;5087302;28;20043;-86
2022/01/27 12:49:41;;;;;;;21.50;3.65;;;8.80;99.90;;;;;;5071338;28;20452;-86
2022/01/27 12:52:10;;;;;;;17.05;3.65;;;8.90;99.90;;;;;;5075194;28;20080;-86
2022/01/27 12:54:37;;;;;;;20.67;3.58;;;8.90;99.90;;;;;;5074345;28;20521;-86
2022/01/27 12:57:03;;;;;;;19.60;3.13;;;8.90;99.90;;;;;;5071293;27;20028;-85
2022/01/27 12:59:31;;;;;;;16.95;3.78;;;8.90;99.90;;;;;;5069291;28;20042;-86
2022/01/27 13:02:05;;;;;;;22.90;3.67;;;8.90;99.90;;;;;;5106613;28;20407;-85
2022/01/27 13:04:32;;;;;;;20.58;3.15;;;8.90;99.90;;;;;;5086130;28;20031;-88
2022/01/27 13:06:59;;;;;;;19.90;3.53;;;8.80;99.90;;;;;;5082681;28;20588;-87
2022/01/27 13:09:26;;;;;;;25.60;4.25;;;8.80;99.90;;;;;;5084470;28;20511;-86
2022/01/27 13:11:54;;;;;;;17.40;2.95;;;8.90;99.90;;;;;;5064549;28;20068;-87
2022/01/27 13:14:20;;;;;;;20.85;3.53;;;8.90;99.90;;;;;;5075711;28;20050;-87
2022/01/27 13:16:52;;;;;;;19.25;3.50;;;8.90;99.90;;;;;;5076776;28;20039;-87
2022/01/27 13:19:29;;;;;;;21.77;4.30;;;8.90;99.90;;;;;;5092189;28;20040;-87
2022/01/27 13:22:00;;;;;;;23.67;4.20;;;8.90;99.90;;;;;;5078669;28;20467;-87
2022/01/27 13:24:27;;;;;;;21.30;3.47;;;8.90;99.90;;;;;;5092775;28;20040;-88
2022/01/27 13:27:07;;;;;;;23.25;3.85;;;8.90;99.90;;;;;;5082525;28;20032;-87
2022/01/27 13:29:41;;;;;;;20.17;4.28;;;8.90;99.90;;;;;;5093131;28;20040;-87
2022/01/27 13:32:08;;;;;;;19.40;3.67;;;8.90;99.90;;;;;;5093135;28;20075;-87
2022/01/27 13:34:35;;;;;;;20.08;3.53;;;8.90;99.90;;;;;;5079401;28;20043;-88